sensor_id;sensor_type;location;lat;lon;timestamp;P1;durP1;ratioP1;P2;durP2;ratioP2
20298;SDS011;10308;42.688;23.256;2023-04-29T06:44:36;11.23;;;10.07;;
20298;SDS011;10308;42.688;23.256;2023-04-29T06:47:03;11.43;;;10.43;;
20298;SDS011;10308;42.688;23.256;2023-04-29T06:49:29;10.27;;;9.38;;
20298;SDS011;10308;42.688;23.256;2023-04-29T06:51:56;11.65;;;10.45;;
20298;SDS011;10308;42.688;23.256;2023-04-29T06:54:26;11.55;;;10.35;;
20298;SDS011;10308;42.688;23.256;2023-04-29T06:56:53;12.23;;;11.07;;
20298;SDS011;10308;42.688;23.256;2023-04-29T06:59:20;12.00;;;10.77;;
20298;SDS011;10308;42.688;23.256;2023-04-29T07:01:48;13.30;;;10.95;;
20298;SDS011;10308;42.688;23.256;2023-04-29T07:04:16;13.15;;;11.85;;
20298;SDS011;10308;42.688;23.256;2023-04-29T07:06:42;12.95;;;11.73;;
20298;SDS011;10308;42.688;23.256;2023-04-29T07:09:11;15.13;;;11.80;;
20298;SDS011;10308;42.688;23.256;2023-04-29T07:11:38;12.38;;;11.00;;
20298;SDS011;10308;42.688;23.256;2023-04-29T07:14:04;12.63;;;11.23;;
20298;SDS011;10308;42.688;23.256;2023-04-29T07:16:32;13.98;;;12.52;;
20298;SDS011;10308;42.688;23.256;2023-04-29T07:19:00;13.57;;;12.30;;
20298;SDS011;10308;42.688;23.256;2023-04-29T07:21:28;13.38;;;11.98;;
20298;SDS011;10308;42.688;23.256;2023-04-29T07:23:57;12.52;;;11.30;;
20298;SDS011;10308;42.688;23.256;2023-04-29T07:26:26;13.35;;;12.05;;
20298;SDS011;10308;42.688;23.256;2023-04-29T07:28:53;13.95;;;11.85;;
20298;SDS011;10308;42.688;23.256;2023-04-29T07:31:20;14.48;;;12.98;;
20298;SDS011;10308;42.688;23.256;2023-04-29T07:33:46;14.25;;;12.75;;
20298;SDS011;10308;42.688;23.256;2023-04-29T07:36:16;14.82;;;12.43;;
20298;SDS011;10308;42.688;23.256;2023-04-29T07:38:43;15.45;;;13.85;;
20298;SDS011;10308;42.688;23.256;2023-04-29T07:41:10;13.13;;;11.88;;
20298;SDS011;10308;42.688;23.256;2023-04-29T07:43:37;13.45;;;12.15;;
20298;SDS011;10308;42.688;23.256;2023-04-29T07:46:07;13.13;;;11.75;;
20298;SDS011;10308;42.688;23.256;2023-04-29T07:48:35;12.75;;;11.55;;
20298;SDS011;10308;42.688;23.256;2023-04-29T07:51:03;11.88;;;10.85;;
20298;SDS011;10308;42.688;23.256;2023-04-29T07:53:35;12.45;;;11.25;;
20298;SDS011;10308;42.688;23.256;2023-04-29T07:56:07;12.43;;;10.90;;
20298;SDS011;10308;42.688;23.256;2023-04-29T07:58:34;10.98;;;9.68;;
20298;SDS011;10308;42.688;23.256;2023-04-29T08:01:04;11.05;;;10.00;;
20298;SDS011;10308;42.688;23.256;2023-04-29T08:03:31;11.90;;;10.70;;
20298;SDS011;10308;42.688;23.256;2023-04-29T08:05:59;11.25;;;10.20;;
20298;SDS011;10308;42.688;23.256;2023-04-29T08:08:27;11.77;;;10.43;;
20298;SDS011;10308;42.688;23.256;2023-04-29T08:10:56;11.55;;;10.35;;
20298;SDS011;10308;42.688;23.256;2023-04-29T08:13:22;11.63;;;10.40;;
20298;SDS011;10308;42.688;23.256;2023-04-29T08:15:49;11.57;;;10.40;;
20298;SDS011;10308;42.688;23.256;2023-04-29T08:18:16;11.77;;;10.57;;
20298;SDS011;10308;42.688;23.256;2023-04-29T08:20:43;11.68;;;10.57;;
20298;SDS011;10308;42.688;23.256;2023-04-29T08:23:10;11.65;;;10.45;;
20298;SDS011;10308;42.688;23.256;2023-04-29T08:25:39;12.40;;;11.10;;
20298;SDS011;10308;42.688;23.256;2023-04-29T08:28:08;13.73;;;12.40;;
20298;SDS011;10308;42.688;23.256;2023-04-29T08:30:36;12.48;;;11.18;;
20298;SDS011;10308;42.688;23.256;2023-04-29T08:33:04;12.88;;;11.65;;
20298;SDS011;10308;42.688;23.256;2023-04-29T08:35:31;12.25;;;11.15;;
20298;SDS011;10308;42.688;23.256;2023-04-29T08:37:57;12.13;;;10.93;;
20298;SDS011;10308;42.688;23.256;2023-04-29T08:40:24;11.52;;;10.43;;
20298;SDS011;10308;42.688;23.256;2023-04-29T08:42:52;11.93;;;10.73;;
20298;SDS011;10308;42.688;23.256;2023-04-29T08:45:21;11.63;;;10.43;;
20298;SDS011;10308;42.688;23.256;2023-04-29T08:47:48;13.82;;;10.20;;
20298;SDS011;10308;42.688;23.256;2023-04-29T08:50:15;11.05;;;10.05;;
20298;SDS011;10308;42.688;23.256;2023-04-29T08:52:42;10.93;;;9.63;;
20298;SDS011;10308;42.688;23.256;2023-04-29T08:55:09;10.50;;;9.50;;
20298;SDS011;10308;42.688;23.256;2023-04-29T08:57:35;10.48;;;9.40;;
20298;SDS011;10308;42.688;23.256;2023-04-29T09:00:05;9.63;;;8.63;;
20298;SDS011;10308;42.688;23.256;2023-04-29T09:02:35;9.45;;;8.45;;
20298;SDS011;10308;42.688;23.256;2023-04-29T09:05:06;14.10;;;9.48;;
20298;SDS011;10308;42.688;23.256;2023-04-29T09:07:35;9.88;;;8.38;;
20298;SDS011;10308;42.688;23.256;2023-04-29T09:10:03;9.75;;;8.75;;
20298;SDS011;10308;42.688;23.256;2023-04-29T09:12:31;9.23;;;8.43;;
20298;SDS011;10308;42.688;23.256;2023-04-29T09:21:42;7.63;;;6.93;;
20298;SDS011;10308;42.688;23.256;2023-04-29T09:24:23;7.22;;;6.63;;
20298;SDS011;10308;42.688;23.256;2023-04-29T09:26:57;9.52;;;7.38;;
20298;SDS011;10308;42.688;23.256;2023-04-29T09:29:24;8.52;;;7.15;;
20298;SDS011;10308;42.688;23.256;2023-04-29T09:31:51;7.10;;;6.50;;
20298;SDS011;10308;42.688;23.256;2023-04-29T09:34:29;8.23;;;6.43;;
20298;SDS011;10308;42.688;23.256;2023-04-29T09:37:02;8.60;;;6.82;;
20298;SDS011;10308;42.688;23.256;2023-04-29T09:39:37;7.07;;;6.38;;
20298;SDS011;10308;42.688;23.256;2023-04-29T09:42:06;8.23;;;6.65;;
20298;SDS011;10308;42.688;23.256;2023-04-29T09:44:40;9.65;;;6.95;;
20298;SDS011;10308;42.688;23.256;2023-04-29T09:47:09;7.50;;;6.80;;
20298;SDS011;10308;42.688;23.256;2023-04-29T09:49:40;7.95;;;6.75;;
20298;SDS011;10308;42.688;23.256;2023-04-29T09:52:16;8.18;;;6.20;;
20298;SDS011;10308;42.688;23.256;2023-04-29T09:54:44;6.78;;;5.88;;
20298;SDS011;10308;42.688;23.256;2023-04-29T09:57:13;7.00;;;5.78;;
20298;SDS011;10308;42.688;23.256;2023-04-29T09:59:41;7.45;;;6.20;;
20298;SDS011;10308;42.688;23.256;2023-04-29T10:02:13;6.20;;;5.57;;
20298;SDS011;10308;42.688;23.256;2023-04-29T10:04:43;7.65;;;6.20;;
20298;SDS011;10308;42.688;23.256;2023-04-29T10:07:14;6.20;;;5.60;;
20298;SDS011;10308;42.688;23.256;2023-04-29T10:09:41;6.60;;;5.90;;
20298;SDS011;10308;42.688;23.256;2023-04-29T10:12:11;6.82;;;5.97;;
20298;SDS011;10308;42.688;23.256;2023-04-29T10:14:42;7.38;;;5.72;;
20298;SDS011;10308;42.688;23.256;2023-04-29T10:17:23;5.30;;;4.80;;
20298;SDS011;10308;42.688;23.256;2023-04-29T10:20:00;7.03;;;6.20;;
20298;SDS011;10308;42.688;23.256;2023-04-29T10:22:34;7.05;;;5.78;;
20298;SDS011;10308;42.688;23.256;2023-04-29T10:25:07;8.73;;;6.03;;
20298;SDS011;10308;42.688;23.256;2023-04-29T10:27:35;6.00;;;5.50;;
20298;SDS011;10308;42.688;23.256;2023-04-29T10:30:05;7.35;;;5.15;;
20298;SDS011;10308;42.688;23.256;2023-04-29T10:32:35;6.93;;;4.50;;
20298;SDS011;10308;42.688;23.256;2023-04-29T10:35:06;4.78;;;4.35;;
20298;SDS011;10308;42.688;23.256;2023-04-29T10:37:37;6.72;;;4.47;;
20298;SDS011;10308;42.688;23.256;2023-04-29T10:40:09;4.57;;;4.03;;
20298;SDS011;10308;42.688;23.256;2023-04-29T10:42:44;5.25;;;4.47;;
20298;SDS011;10308;42.688;23.256;2023-04-29T10:45:18;7.97;;;4.35;;
20298;SDS011;10308;42.688;23.256;2023-04-29T10:53:34;4.03;;;3.58;;
20298;SDS011;10308;42.688;23.256;2023-04-29T10:56:03;4.78;;;3.47;;
20298;SDS011;10308;42.688;23.256;2023-04-29T10:58:35;3.65;;;3.25;;
20298;SDS011;10308;42.688;23.256;2023-04-29T11:01:03;6.20;;;3.25;;
20298;SDS011;10308;42.688;23.256;2023-04-29T11:03:49;3.30;;;3.00;;
20298;SDS011;10308;42.688;23.256;2023-04-29T11:06:21;4.50;;;3.35;;
20298;SDS011;10308;42.688;23.256;2023-04-29T11:09:01;4.93;;;3.22;;
20298;SDS011;10308;42.688;23.256;2023-04-29T11:11:48;4.38;;;2.60;;
20298;SDS011;10308;42.688;23.256;2023-04-29T11:14:23;2.83;;;2.50;;
20298;SDS011;10308;42.688;23.256;2023-04-29T11:16:54;2.85;;;2.55;;
20298;SDS011;10308;42.688;23.256;2023-04-29T11:19:31;2.38;;;2.17;;
20298;SDS011;10308;42.688;23.256;2023-04-29T11:22:09;3.65;;;2.85;;
20298;SDS011;10308;42.688;23.256;2023-04-29T11:24:56;3.05;;;2.75;;
20298;SDS011;10308;42.688;23.256;2023-04-29T11:27:44;3.00;;;2.70;;
20298;SDS011;10308;42.688;23.256;2023-04-29T11:30:13;2.97;;;2.40;;
20298;SDS011;10308;42.688;23.256;2023-04-29T11:32:40;3.97;;;2.33;;
20298;SDS011;10308;42.688;23.256;2023-04-29T11:35:09;3.25;;;2.47;;
20298;SDS011;10308;42.688;23.256;2023-04-29T11:37:40;3.25;;;2.75;;
20298;SDS011;10308;42.688;23.256;2023-04-29T11:40:13;4.53;;;2.70;;
20298;SDS011;10308;42.688;23.256;2023-04-29T11:42:42;4.55;;;2.60;;
20298;SDS011;10308;42.688;23.256;2023-04-29T11:45:11;2.30;;;2.20;;
20298;SDS011;10308;42.688;23.256;2023-04-29T11:47:42;2.92;;;2.60;;
20298;SDS011;10308;42.688;23.256;2023-04-29T11:50:13;3.45;;;2.60;;
20298;SDS011;10308;42.688;23.256;2023-04-29T11:52:43;3.80;;;2.78;;
20298;SDS011;10308;42.688;23.256;2023-04-29T11:55:14;2.60;;;2.40;;
20298;SDS011;10308;42.688;23.256;2023-04-29T11:57:42;2.80;;;2.30;;
20298;SDS011;10308;42.688;23.256;2023-04-29T12:00:10;4.15;;;2.30;;
20298;SDS011;10308;42.688;23.256;2023-04-29T12:02:42;3.97;;;2.60;;
20298;SDS011;10308;42.688;23.256;2023-04-29T12:05:11;4.45;;;2.25;;
20298;SDS011;10308;42.688;23.256;2023-04-29T12:07:39;2.53;;;2.33;;
20298;SDS011;10308;42.688;23.256;2023-04-29T12:10:07;2.95;;;2.28;;
20298;SDS011;10308;42.688;23.256;2023-04-29T12:12:37;2.72;;;2.13;;
20298;SDS011;10308;42.688;23.256;2023-04-29T12:15:06;2.88;;;2.17;;
20298;SDS011;10308;42.688;23.256;2023-04-29T12:17:38;3.17;;;2.45;;
20298;SDS011;10308;42.688;23.256;2023-04-29T12:20:08;2.20;;;2.10;;
20298;SDS011;10308;42.688;23.256;2023-04-29T12:22:37;3.30;;;2.45;;
20298;SDS011;10308;42.688;23.256;2023-04-29T12:25:05;3.20;;;2.90;;
20298;SDS011;10308;42.688;23.256;2023-04-29T12:27:33;2.90;;;1.95;;
20298;SDS011;10308;42.688;23.256;2023-04-29T12:30:10;2.38;;;2.17;;
20298;SDS011;10308;42.688;23.256;2023-04-29T12:32:41;2.40;;;2.20;;
20298;SDS011;10308;42.688;23.256;2023-04-29T12:35:15;2.42;;;2.10;;
20298;SDS011;10308;42.688;23.256;2023-04-29T12:37:46;2.20;;;2.00;;
20298;SDS011;10308;42.688;23.256;2023-04-29T12:40:15;2.35;;;2.15;;
20298;SDS011;10308;42.688;23.256;2023-04-29T12:42:44;2.55;;;2.15;;
20298;SDS011;10308;42.688;23.256;2023-04-29T12:45:34;3.45;;;2.40;;
20298;SDS011;10308;42.688;23.256;2023-04-29T12:48:04;2.83;;;2.05;;
20298;SDS011;10308;42.688;23.256;2023-04-29T12:50:32;2.10;;;1.90;;
20298;SDS011;10308;42.688;23.256;2023-04-29T12:52:59;2.75;;;2.40;;
20298;SDS011;10308;42.688;23.256;2023-04-29T12:55:27;2.38;;;2.20;;
20298;SDS011;10308;42.688;23.256;2023-04-29T12:57:54;2.78;;;2.40;;
20298;SDS011;10308;42.688;23.256;2023-04-29T13:00:22;2.60;;;2.10;;
20298;SDS011;10308;42.688;23.256;2023-04-29T13:02:56;3.65;;;2.20;;
20298;SDS011;10308;42.688;23.256;2023-04-29T13:05:22;2.30;;;2.10;;
20298;SDS011;10308;42.688;23.256;2023-04-29T13:07:51;2.33;;;2.00;;
20298;SDS011;10308;42.688;23.256;2023-04-29T13:10:18;3.13;;;2.30;;
20298;SDS011;10308;42.688;23.256;2023-04-29T13:12:45;2.17;;;1.98;;
20298;SDS011;10308;42.688;23.256;2023-04-29T13:15:13;2.10;;;1.90;;
20298;SDS011;10308;42.688;23.256;2023-04-29T13:17:43;2.45;;;2.20;;
20298;SDS011;10308;42.688;23.256;2023-04-29T13:20:14;6.50;;;2.42;;
20298;SDS011;10308;42.688;23.256;2023-04-29T13:22:41;2.22;;;2.00;;
20298;SDS011;10308;42.688;23.256;2023-04-29T13:25:13;2.50;;;2.00;;
20298;SDS011;10308;42.688;23.256;2023-04-29T13:27:40;4.35;;;2.28;;
20298;SDS011;10308;42.688;23.256;2023-04-29T13:30:09;3.00;;;2.10;;
20298;SDS011;10308;42.688;23.256;2023-04-29T13:32:39;2.38;;;2.15;;
20298;SDS011;10308;42.688;23.256;2023-04-29T13:35:08;3.05;;;2.38;;
20298;SDS011;10308;42.688;23.256;2023-04-29T13:37:40;2.30;;;2.10;;
20298;SDS011;10308;42.688;23.256;2023-04-29T13:40:07;3.22;;;2.30;;
20298;SDS011;10308;42.688;23.256;2023-04-29T13:42:35;2.17;;;1.98;;
20298;SDS011;10308;42.688;23.256;2023-04-29T13:45:04;2.30;;;2.10;;
20298;SDS011;10308;42.688;23.256;2023-04-29T13:47:31;2.20;;;2.00;;
20298;SDS011;10308;42.688;23.256;2023-04-29T13:49:59;2.90;;;2.70;;
20298;SDS011;10308;42.688;23.256;2023-04-29T13:52:26;2.30;;;1.70;;
20298;SDS011;10308;42.688;23.256;2023-04-29T13:54:58;3.38;;;2.00;;
20298;SDS011;10308;42.688;23.256;2023-04-29T13:57:24;2.33;;;2.13;;
20298;SDS011;10308;42.688;23.256;2023-04-29T13:59:52;2.40;;;2.20;;
20298;SDS011;10308;42.688;23.256;2023-04-29T14:02:22;2.17;;;2.08;;
20298;SDS011;10308;42.688;23.256;2023-04-29T14:04:50;2.42;;;2.20;;
20298;SDS011;10308;42.688;23.256;2023-04-29T14:07:18;2.90;;;2.03;;
20298;SDS011;10308;42.688;23.256;2023-04-29T14:09:45;2.85;;;2.40;;
20298;SDS011;10308;42.688;23.256;2023-04-29T14:12:16;2.45;;;2.25;;
20298;SDS011;10308;42.688;23.256;2023-04-29T14:14:46;2.25;;;2.08;;
20298;SDS011;10308;42.688;23.256;2023-04-29T14:17:13;4.32;;;3.90;;
20298;SDS011;10308;42.688;23.256;2023-04-29T14:19:42;39.28;;;25.13;;
20298;SDS011;10308;42.688;23.256;2023-04-29T14:22:10;15.05;;;11.73;;
20298;SDS011;10308;42.688;23.256;2023-04-29T14:24:37;16.63;;;12.98;;
20298;SDS011;10308;42.688;23.256;2023-04-29T14:27:05;5.20;;;4.40;;
20298;SDS011;10308;42.688;23.256;2023-04-29T14:29:35;3.58;;;3.28;;
20298;SDS011;10308;42.688;23.256;2023-04-29T14:32:03;3.55;;;3.00;;
20298;SDS011;10308;42.688;23.256;2023-04-29T14:34:31;3.45;;;2.80;;
20298;SDS011;10308;42.688;23.256;2023-04-29T14:37:00;4.18;;;2.90;;
20298;SDS011;10308;42.688;23.256;2023-04-29T14:39:30;3.40;;;3.03;;
20298;SDS011;10308;42.688;23.256;2023-04-29T14:41:59;3.53;;;3.10;;
20298;SDS011;10308;42.688;23.256;2023-04-29T14:44:28;3.45;;;3.15;;
20298;SDS011;10308;42.688;23.256;2023-04-29T14:46:56;4.07;;;2.95;;
20298;SDS011;10308;42.688;23.256;2023-04-29T14:49:25;3.60;;;3.17;;
20298;SDS011;10308;42.688;23.256;2023-04-29T14:51:52;5.18;;;3.33;;
20298;SDS011;10308;42.688;23.256;2023-04-29T14:54:23;4.07;;;3.20;;
20298;SDS011;10308;42.688;23.256;2023-04-29T14:56:53;3.30;;;3.00;;
20298;SDS011;10308;42.688;23.256;2023-04-29T14:59:20;5.07;;;3.38;;
20298;SDS011;10308;42.688;23.256;2023-04-29T15:01:46;3.90;;;3.58;;
20298;SDS011;10308;42.688;23.256;2023-04-29T15:04:17;3.28;;;2.97;;
20298;SDS011;10308;42.688;23.256;2023-04-29T15:06:46;3.60;;;2.97;;
20298;SDS011;10308;42.688;23.256;2023-04-29T15:09:16;5.18;;;4.15;;
20298;SDS011;10308;42.688;23.256;2023-04-29T15:11:46;4.85;;;4.45;;
20298;SDS011;10308;42.688;23.256;2023-04-29T15:14:12;4.20;;;3.30;;
20298;SDS011;10308;42.688;23.256;2023-04-29T16:15:30;3.72;;;3.42;;
20298;SDS011;10308;42.688;23.256;2023-04-29T16:17:57;3.92;;;3.50;;
20298;SDS011;10308;42.688;23.256;2023-04-29T16:20:30;5.05;;;3.92;;
20298;SDS011;10308;42.688;23.256;2023-04-29T16:22:57;4.30;;;3.53;;
20298;SDS011;10308;42.688;23.256;2023-04-29T16:25:24;5.70;;;4.13;;
20298;SDS011;10308;42.688;23.256;2023-04-29T16:27:51;5.13;;;3.67;;
20298;SDS011;10308;42.688;23.256;2023-04-29T16:30:19;5.75;;;3.40;;
20298;SDS011;10308;42.688;23.256;2023-04-29T16:32:50;4.10;;;3.55;;
20298;SDS011;10308;42.688;23.256;2023-04-29T16:35:19;4.32;;;3.92;;
20298;SDS011;10308;42.688;23.256;2023-04-29T16:37:51;5.30;;;4.13;;
20298;SDS011;10308;42.688;23.256;2023-04-29T16:40:21;5.45;;;4.95;;
20298;SDS011;10308;42.688;23.256;2023-04-29T16:42:50;7.03;;;4.57;;
20298;SDS011;10308;42.688;23.256;2023-04-29T16:45:17;4.60;;;4.22;;
20298;SDS011;10308;42.688;23.256;2023-04-29T16:47:44;5.22;;;4.72;;
20298;SDS011;10308;42.688;23.256;2023-04-29T16:50:13;7.07;;;6.07;;
20298;SDS011;10308;42.688;23.256;2023-04-29T16:52:42;6.82;;;6.13;;
20298;SDS011;10308;42.688;23.256;2023-04-29T16:55:10;7.15;;;6.00;;
20298;SDS011;10308;42.688;23.256;2023-04-29T16:57:39;6.80;;;5.25;;
20298;SDS011;10308;42.688;23.256;2023-04-29T17:00:10;7.38;;;5.95;;
20298;SDS011;10308;42.688;23.256;2023-04-29T17:02:37;8.52;;;5.95;;
20298;SDS011;10308;42.688;23.256;2023-04-29T17:05:10;5.40;;;4.60;;
20298;SDS011;10308;42.688;23.256;2023-04-29T17:07:41;4.80;;;4.30;;
20298;SDS011;10308;42.688;23.256;2023-04-29T17:10:09;6.45;;;4.68;;
20298;SDS011;10308;42.688;23.256;2023-04-29T17:12:37;4.25;;;3.85;;
20298;SDS011;10308;42.688;23.256;2023-04-29T17:15:05;5.85;;;4.53;;
20298;SDS011;10308;42.688;23.256;2023-04-29T17:17:32;4.22;;;3.83;;
20298;SDS011;10308;42.688;23.256;2023-04-29T17:20:03;4.38;;;3.72;;
20298;SDS011;10308;42.688;23.256;2023-04-29T17:22:33;4.50;;;4.10;;
20298;SDS011;10308;42.688;23.256;2023-04-29T17:25:04;5.03;;;4.15;;
20298;SDS011;10308;42.688;23.256;2023-04-29T17:27:33;5.43;;;4.18;;
20298;SDS011;10308;42.688;23.256;2023-04-29T17:30:02;5.05;;;4.65;;
20298;SDS011;10308;42.688;23.256;2023-04-29T17:32:31;6.78;;;5.32;;
20298;SDS011;10308;42.688;23.256;2023-04-29T17:35:04;5.00;;;4.60;;
20298;SDS011;10308;42.688;23.256;2023-04-29T17:37:34;5.00;;;4.15;;
20298;SDS011;10308;42.688;23.256;2023-04-29T17:40:09;4.80;;;4.30;;
20298;SDS011;10308;42.688;23.256;2023-04-29T17:42:45;4.43;;;3.90;;
20298;SDS011;10308;42.688;23.256;2023-04-29T17:45:15;5.18;;;3.97;;
20298;SDS011;10308;42.688;23.256;2023-04-29T17:47:43;6.03;;;4.32;;
20298;SDS011;10308;42.688;23.256;2023-04-29T17:50:12;4.53;;;4.13;;
20298;SDS011;10308;42.688;23.256;2023-04-29T17:52:38;5.82;;;4.57;;
20298;SDS011;10308;42.688;23.256;2023-04-29T17:55:15;6.95;;;4.82;;
20298;SDS011;10308;42.688;23.256;2023-04-29T17:57:44;5.40;;;4.90;;
20298;SDS011;10308;42.688;23.256;2023-04-29T18:00:12;5.43;;;4.88;;
20298;SDS011;10308;42.688;23.256;2023-04-29T18:02:40;5.60;;;4.97;;
20298;SDS011;10308;42.688;23.256;2023-04-29T18:05:08;5.20;;;4.65;;
20298;SDS011;10308;42.688;23.256;2023-04-29T18:07:35;5.82;;;5.32;;
20298;SDS011;10308;42.688;23.256;2023-04-29T18:10:07;5.47;;;5.00;;
20298;SDS011;10308;42.688;23.256;2023-04-29T18:12:35;5.30;;;4.80;;
20298;SDS011;10308;42.688;23.256;2023-04-29T18:15:08;5.38;;;4.88;;
20298;SDS011;10308;42.688;23.256;2023-04-29T18:17:38;5.50;;;5.00;;
20298;SDS011;10308;42.688;23.256;2023-04-29T18:20:08;5.13;;;4.72;;
20298;SDS011;10308;42.688;23.256;2023-04-29T18:22:40;6.28;;;4.40;;
20298;SDS011;10308;42.688;23.256;2023-04-29T18:25:12;5.00;;;4.25;;
20298;SDS011;10308;42.688;23.256;2023-04-29T18:27:44;4.38;;;4.07;;
20298;SDS011;10308;42.688;23.256;2023-04-29T18:30:14;5.03;;;4.50;;
20298;SDS011;10308;42.688;23.256;2023-04-29T18:32:42;5.18;;;4.68;;
20298;SDS011;10308;42.688;23.256;2023-04-29T18:35:10;5.43;;;4.93;;
20298;SDS011;10308;42.688;23.256;2023-04-29T18:37:39;5.75;;;5.15;;
20298;SDS011;10308;42.688;23.256;2023-04-29T18:40:06;5.50;;;4.75;;
20298;SDS011;10308;42.688;23.256;2023-04-29T18:42:36;5.18;;;4.60;;
20298;SDS011;10308;42.688;23.256;2023-04-29T18:45:08;5.70;;;5.20;;
